»·PEaware :: UAL1355 KSAN-KLAS

UAL1355 :: KSAN-KLAS

FLIGHT INFORMATION

Flight Status: Arrived
Operator:
United Airlines
More flights by this operator :: More flights under this callsign
Pilot: Keith A. (7560)
Aircraft: AIRBUS A321
(A321)
More flights by this aircraft type
Origin: KSAN San Diego Intl-Lindbergh
United States
Destination: KLAS McCarran Intl
United States
More flights between these airports :: More routes between these airports
Route: +PADRZ2 CHKNN SEBBY YELAH MISEN KEPEC6
File this flight plan on PilotEdge
Remarks:
Altitude:
(Current/Filed)
27,000ft
Speed:
(Current/Filed)
290kts
Departed: 01-Aug-20 08:08 PM
Arrived: 01-Aug-20 09:07 PM
Distance/Time
Traveled:
225nm/0:59
Distance/Time
To Go:
Arrived

Flight Plot

Page will automatically refresh every two minutes.

Flight plan parsing failed; only flown route is shown


Map Options




Map Legend


Flown Route
Filed Route
Departure Airport
Arrival Airport
Navaid (VOR, NDB)
Fix

Horizontal Profiles

Position Reports

Time Latitude Longitude Heading Altitude Ground
Speed
01-Aug-20 19:43 32.733368 -117.203445 264 26ft 0kts
01-Aug-20 19:44 32.733368 -117.203445 264 26ft 0kts
01-Aug-20 19:46 32.733368 -117.203445 264 26ft 0kts
01-Aug-20 19:47 32.733368 -117.203445 264 26ft 0kts
01-Aug-20 19:48 32.733368 -117.203445 264 26ft 0kts
01-Aug-20 19:49 32.733368 -117.203445 264 26ft 0kts
01-Aug-20 19:50 32.733368 -117.203445 264 26ft 0kts
01-Aug-20 19:51 32.733368 -117.203445 264 26ft 0kts
01-Aug-20 19:52 32.733368 -117.203445 264 26ft 0kts
01-Aug-20 19:53 32.733368 -117.203445 264 26ft 0kts
01-Aug-20 19:54 32.733368 -117.203445 264 26ft 0kts
01-Aug-20 19:55 32.733368 -117.203445 264 26ft 0kts
01-Aug-20 19:56 32.733368 -117.203445 264 26ft 0kts
01-Aug-20 19:57 32.733368 -117.203445 264 26ft 0kts
01-Aug-20 19:58 32.733368 -117.203445 264 26ft 0kts
01-Aug-20 19:59 32.733373 -117.203382 264 26ft 4kts
01-Aug-20 20:00 32.733449 -117.202311 268 26ft 0kts
01-Aug-20 20:00 32.734371 -117.202636 14 26ft 0kts
01-Aug-20 20:02 32.735074 -117.202401 24 26ft 11kts
01-Aug-20 20:03 32.734253 -117.196733 106 26ft 21kts
01-Aug-20 20:03 32.732775 -117.190657 106 26ft 28kts
01-Aug-20 20:05 32.730307 -117.180743 104 26ft 24kts
01-Aug-20 20:06 32.729545 -117.177178 98 26ft 0kts
01-Aug-20 20:06 32.729599 -117.176680 62 26ft 9kts
01-Aug-20 20:07 32.733225 -117.188422 285 26ft 143kts
01-Aug-20 20:09 32.765084 -117.254728 296 2767ft 218kts
01-Aug-20 20:09 32.789286 -117.303780 307 3100ft 207kts
01-Aug-20 20:10 32.824925 -117.358191 306 3251ft 190kts
01-Aug-20 20:11 32.865712 -117.416078 317 5085ft 275kts
01-Aug-20 20:12 32.922701 -117.504046 301 8579ft 397kts
01-Aug-20 20:13 32.980326 -117.597210 307 11869ft 265kts
01-Aug-20 20:14 33.027951 -117.673963 304 13304ft 325kts
01-Aug-20 20:15 33.087013 -117.756040 319 16953ft 335kts
01-Aug-20 20:16 33.158099 -117.820145 319 20870ft 308kts
01-Aug-20 20:17 33.221058 -117.883811 313 23097ft 307kts
01-Aug-20 20:18 33.289282 -117.955028 317 23125ft 346kts
01-Aug-20 20:19 33.365284 -118.029834 318 24151ft 349kts
01-Aug-20 20:20 33.452372 -118.029013 35 25723ft 347kts
01-Aug-20 20:21 33.525394 -117.958411 36 27096ft 336kts
01-Aug-20 20:22 33.602193 -117.885632 36 27111ft 367kts
01-Aug-20 20:23 33.685596 -117.806774 36 27110ft 394kts
01-Aug-20 20:24 33.774270 -117.722729 36 27105ft 416kts
01-Aug-20 20:25 33.864040 -117.637375 36 27096ft 412kts
01-Aug-20 20:26 33.953483 -117.552141 36 27091ft 409kts
01-Aug-20 20:27 34.042478 -117.467110 36 27099ft 407kts
01-Aug-20 20:28 34.131018 -117.382404 36 27110ft 406kts
01-Aug-20 20:29 34.219660 -117.297245 36 26777ft 415kts
01-Aug-20 20:30 34.306638 -117.213243 36 25674ft 400kts
01-Aug-20 20:31 34.393762 -117.129073 36 24395ft 403kts
01-Aug-20 20:32 34.481408 -117.044165 36 24121ft 402kts
01-Aug-20 20:33 34.568515 -116.959557 36 24112ft 403kts
01-Aug-20 20:34 34.656311 -116.874046 36 24084ft 406kts
01-Aug-20 20:35 34.743616 -116.788782 36 24064ft 406kts
01-Aug-20 20:36 34.832022 -116.702198 36 24060ft 406kts
01-Aug-20 20:37 34.919725 -116.616026 36 24059ft 406kts
01-Aug-20 20:38 35.007779 -116.529295 36 24061ft 409kts
01-Aug-20 20:39 35.094038 -116.437299 40 24075ft 414kts
01-Aug-20 20:40 35.179109 -116.342379 40 24083ft 418kts
01-Aug-20 20:41 35.267827 -116.250262 36 24087ft 421kts
01-Aug-20 20:42 35.359213 -116.161380 36 23287ft 403kts
01-Aug-20 20:43 35.444547 -116.078814 36 21188ft 391kts
01-Aug-20 20:44 35.529082 -115.996804 37 19087ft 375kts
01-Aug-20 20:45 35.608174 -115.919848 37 17002ft 359kts
01-Aug-20 20:46 35.684971 -115.844944 38 14899ft 349kts
01-Aug-20 20:47 35.761021 -115.770576 38 13023ft 350kts
01-Aug-20 20:48 35.837143 -115.695375 44 13007ft 351kts
01-Aug-20 20:49 35.891379 -115.605573 55 12410ft 304kts
01-Aug-20 20:50 35.941350 -115.522804 54 10992ft 294kts
01-Aug-20 20:51 35.990272 -115.442511 54 10977ft 292kts
01-Aug-20 20:52 36.030447 -115.357782 93 10867ft 286kts
01-Aug-20 20:53 36.022531 -115.260355 98 9489ft 285kts
01-Aug-20 20:54 36.015490 -115.162558 97 8296ft 288kts
01-Aug-20 20:55 36.009376 -115.071870 96 7992ft 255kts
01-Aug-20 20:56 36.004400 -114.987656 96 7931ft 257kts
01-Aug-20 20:57 35.999354 -114.903295 96 6459ft 236kts
01-Aug-20 20:58 35.994367 -114.822371 96 5973ft 236kts
01-Aug-20 20:59 36.025657 -114.763935 355 5448ft 231kts
01-Aug-20 21:00 36.057955 -114.810403 291 4995ft 185kts
01-Aug-20 21:01 36.070510 -114.872154 272 4960ft 186kts
01-Aug-20 21:02 36.071869 -114.936315 267 4951ft 186kts
01-Aug-20 21:03 36.072292 -114.999806 269 4333ft 187kts
01-Aug-20 21:04 36.073991 -115.058512 268 2970ft 160kts
01-Aug-20 21:05 36.073693 -115.113448 267 2301ft 151kts
01-Aug-20 21:06 36.074295 -115.149416 287 2118ft 22kts
01-Aug-20 21:07 36.074475 -115.149939 295 2119ft 0kts
01-Aug-20 21:08 36.077565 -115.152543 359 2124ft 19kts

Navigation Log

Ident Type
Flight plan parsing failed, navigation log unavailable